createdAt,value
2023-05-09T00:00:59.325Z,14.04
2023-05-09T00:01:59.273Z,14.07
2023-05-09T00:02:59.281Z,14.08
2023-05-09T00:04:00.305Z,14.04
2023-05-09T00:04:59.203Z,14.14
2023-05-09T00:06:00.175Z,14.08
2023-05-09T00:06:59.188Z,14.04
2023-05-09T00:07:59.166Z,14.10
2023-05-09T00:08:59.206Z,14.11
2023-05-09T00:09:59.144Z,14.22
2023-05-09T00:10:59.129Z,14.18
2023-05-09T00:11:59.153Z,14.15
2023-05-09T00:12:59.206Z,14.14
2023-05-09T00:14:00.233Z,14.15
2023-05-09T00:14:59.119Z,14.15
2023-05-09T00:15:59.081Z,14.10
2023-05-09T00:17:00.067Z,14.08
2023-05-09T00:17:59.090Z,14.03
2023-05-09T00:18:59.104Z,14.08
2023-05-09T00:19:59.024Z,14.10
2023-05-09T00:20:59.036Z,14.05
2023-05-09T00:22:00.111Z,14.11
2023-05-09T00:22:58.998Z,14.03
2023-05-09T00:23:59.027Z,13.99
2023-05-09T00:24:59.027Z,14.03
2023-05-09T00:25:59.962Z,14.04
2023-05-09T00:26:58.972Z,13.95
2023-05-09T00:27:58.946Z,14.07
2023-05-09T00:28:58.961Z,14.00
2023-05-09T00:29:59.040Z,13.96
2023-05-09T00:30:58.957Z,14.00
2023-05-09T00:31:59.942Z,13.97
2023-05-09T00:32:58.941Z,13.93
2023-05-09T00:33:59.937Z,13.93
2023-05-09T00:34:58.896Z,13.96
2023-05-09T00:35:58.857Z,13.93
2023-05-09T00:36:58.898Z,13.96
2023-05-09T00:37:58.866Z,13.96
2023-05-09T00:38:59.827Z,13.96
2023-05-09T00:39:58.824Z,13.87
2023-05-09T00:40:59.784Z,13.79
2023-05-09T00:41:58.803Z,13.86
2023-05-09T00:42:58.836Z,13.85
2023-05-09T00:43:59.772Z,13.79
2023-05-09T00:44:58.817Z,13.68
2023-05-09T00:45:58.918Z,13.74
2023-05-09T00:46:58.738Z,13.77
2023-05-09T00:47:58.795Z,13.63
2023-05-09T00:48:58.728Z,13.68
2023-05-09T00:49:59.730Z,13.50
2023-05-09T00:50:58.693Z,13.60
2023-05-09T00:51:59.692Z,13.57
2023-05-09T00:52:58.703Z,13.62
2023-05-09T00:53:59.691Z,13.62
2023-05-09T00:54:58.662Z,13.65
2023-05-09T00:55:58.651Z,13.71
2023-05-09T00:56:58.666Z,13.68
2023-05-09T00:57:58.635Z,13.74
2023-05-09T00:58:58.620Z,13.75
2023-05-09T00:59:58.609Z,13.63
2023-05-09T01:00:59.613Z,13.70
2023-05-09T01:01:58.723Z,13.67
2023-05-09T01:02:58.695Z,13.65
2023-05-09T01:03:59.569Z,13.74
2023-05-09T01:04:58.566Z,13.70
2023-05-09T01:05:58.531Z,13.70
2023-05-09T01:06:58.528Z,13.71
2023-05-09T01:07:58.559Z,13.71
2023-05-09T01:08:58.514Z,13.68
2023-05-09T01:09:59.483Z,13.72
2023-05-09T01:10:58.467Z,13.65
2023-05-09T01:11:58.474Z,13.74
2023-05-09T01:12:58.542Z,13.68
2023-05-09T01:13:58.444Z,13.63
2023-05-09T01:14:58.440Z,13.74
2023-05-09T01:15:58.460Z,13.75
2023-05-09T01:16:58.427Z,13.79
2023-05-09T01:17:58.639Z,13.72
2023-05-09T01:18:58.411Z,13.77
2023-05-09T01:19:58.399Z,13.62
2023-05-09T01:20:58.369Z,13.65
2023-05-09T01:21:58.384Z,13.52
2023-05-09T01:22:58.345Z,13.62
2023-05-09T01:23:58.337Z,13.62
2023-05-09T01:24:58.319Z,13.47
2023-05-09T01:25:58.330Z,13.49
2023-05-09T01:26:58.370Z,13.53
2023-05-09T01:27:58.329Z,13.52
2023-05-09T01:28:58.375Z,13.46
2023-05-09T01:29:59.268Z,13.50
2023-05-09T01:30:58.285Z,13.44
2023-05-09T01:31:58.266Z,13.41
2023-05-09T01:32:58.313Z,13.42
2023-05-09T01:33:59.372Z,13.46
2023-05-09T01:34:58.238Z,13.42
2023-05-09T01:35:58.212Z,13.31
2023-05-09T01:36:58.199Z,13.30
2023-05-09T01:37:58.201Z,13.25
2023-05-09T01:38:58.198Z,13.28
2023-05-09T01:39:58.144Z,13.22
2023-05-09T01:40:58.149Z,13.28
2023-05-09T01:41:58.207Z,13.27
2023-05-09T01:42:58.153Z,13.35
2023-05-09T01:43:58.156Z,13.30
2023-05-09T01:44:58.094Z,13.27
2023-05-09T01:45:58.106Z,13.27
2023-05-09T01:46:58.170Z,13.25
2023-05-09T01:47:59.118Z,13.16
2023-05-09T01:48:58.101Z,13.18
2023-05-09T01:49:58.174Z,13.13
2023-05-09T01:50:58.045Z,12.98
2023-05-09T01:51:58.014Z,13.05
2023-05-09T01:52:59.040Z,13.01
2023-05-09T01:53:59.025Z,13.08
2023-05-09T01:54:57.994Z,13.04
2023-05-09T01:55:58.026Z,13.00
2023-05-09T01:56:58.051Z,12.95
2023-05-09T01:57:57.950Z,12.94
2023-05-09T01:58:57.987Z,12.97
2023-05-09T01:59:57.946Z,12.94
2023-05-09T02:00:57.967Z,12.95
2023-05-09T02:01:58.940Z,12.93
2023-05-09T02:02:58.984Z,12.87
2023-05-09T02:03:57.916Z,12.95
2023-05-09T02:04:58.117Z,12.94
2023-05-09T02:05:59.021Z,13.00
2023-05-09T02:06:57.908Z,12.98
2023-05-09T02:07:58.848Z,12.91
2023-05-09T02:08:57.850Z,12.87
2023-05-09T02:09:57.894Z,12.83
2023-05-09T02:10:57.841Z,12.94
2023-05-09T02:11:57.801Z,12.90
2023-05-09T02:12:57.830Z,12.83
2023-05-09T02:13:57.819Z,12.87
2023-05-09T02:14:57.817Z,12.82
2023-05-09T02:15:57.764Z,12.72
2023-05-09T02:16:57.789Z,12.76
2023-05-09T02:17:57.793Z,12.76
2023-05-09T02:18:57.752Z,12.67
2023-05-09T02:19:57.728Z,12.70
2023-05-09T02:20:57.763Z,12.68
2023-05-09T02:21:58.710Z,12.65
2023-05-09T02:22:57.689Z,12.68
2023-05-09T02:23:57.680Z,12.70
2023-05-09T02:24:57.667Z,12.67
2023-05-09T02:25:58.691Z,12.62
2023-05-09T02:26:57.656Z,12.55
2023-05-09T02:27:58.628Z,12.53
2023-05-09T02:28:57.622Z,12.57
2023-05-09T02:29:58.636Z,12.40
2023-05-09T02:30:57.635Z,12.54
2023-05-09T02:31:57.611Z,12.46
2023-05-09T02:32:57.596Z,12.50
2023-05-09T02:33:57.561Z,12.50
2023-05-09T02:34:57.564Z,12.57
2023-05-09T02:35:57.565Z,12.55
2023-05-09T02:36:57.547Z,12.57
2023-05-09T02:37:57.721Z,12.53
2023-05-09T02:38:57.533Z,12.58
2023-05-09T02:39:58.502Z,12.53
2023-05-09T02:40:57.532Z,12.54
2023-05-09T02:41:57.495Z,12.50
2023-05-09T02:42:57.484Z,12.57
2023-05-09T02:43:57.506Z,12.50
2023-05-09T02:44:57.430Z,12.57
2023-05-09T02:45:57.479Z,12.47
2023-05-09T02:46:58.454Z,12.55
2023-05-09T02:47:57.471Z,12.50
2023-05-09T02:48:58.426Z,12.54
2023-05-09T02:49:57.415Z,12.58
2023-05-09T02:50:57.377Z,12.43
2023-05-09T02:51:57.367Z,12.53
2023-05-09T02:52:57.354Z,12.40
2023-05-09T02:53:57.493Z,12.37
2023-05-09T02:54:57.324Z,12.50
2023-05-09T02:55:57.337Z,12.50
2023-05-09T02:56:57.342Z,12.58
2023-05-09T02:58:05.660Z,12.50
2023-05-09T02:58:58.311Z,12.55
2023-05-09T02:59:57.310Z,12.45
2023-05-09T03:00:57.276Z,12.43
2023-05-09T03:01:57.355Z,12.50
2023-05-09T03:02:58.298Z,12.58
2023-05-09T03:03:58.411Z,12.57
2023-05-09T03:04:58.238Z,12.60
2023-05-09T03:05:57.216Z,12.50
2023-05-09T03:06:57.252Z,12.54
2023-05-09T03:07:57.245Z,12.55
2023-05-09T03:08:57.189Z,12.60
2023-05-09T03:09:57.296Z,12.53
2023-05-09T03:10:57.186Z,12.55
2023-05-09T03:11:57.174Z,12.49
2023-05-09T03:12:57.173Z,12.49
2023-05-09T03:13:57.209Z,12.53
2023-05-09T03:14:57.123Z,12.54
2023-05-09T03:15:57.142Z,12.43
2023-05-09T03:16:57.102Z,12.46
2023-05-09T03:17:57.143Z,12.47
2023-05-09T03:18:57.105Z,12.46
2023-05-09T03:19:57.115Z,12.47
2023-05-09T03:20:57.070Z,12.45
2023-05-09T03:21:58.077Z,12.54
2023-05-09T03:22:57.040Z,12.42
2023-05-09T03:23:57.013Z,12.45
2023-05-09T03:24:58.095Z,12.47
2023-05-09T03:25:57.115Z,12.49
2023-05-09T03:26:56.991Z,12.45
2023-05-09T03:27:56.964Z,12.42
2023-05-09T03:28:56.980Z,12.43
2023-05-09T03:29:57.015Z,12.45
2023-05-09T03:30:56.932Z,12.50
2023-05-09T03:31:57.947Z,12.47
2023-05-09T03:32:57.967Z,12.42
2023-05-09T03:33:57.897Z,12.49
2023-05-09T03:34:56.896Z,12.47
2023-05-09T03:35:56.941Z,12.43
2023-05-09T03:36:57.895Z,12.36
2023-05-09T03:37:56.889Z,12.37
2023-05-09T03:38:57.868Z,12.40
2023-05-09T03:39:56.845Z,12.43
2023-05-09T03:41:04.645Z,12.49
2023-05-09T03:41:56.860Z,12.49
2023-05-09T03:42:56.825Z,12.47
2023-05-09T03:43:56.791Z,12.50
2023-05-09T03:44:56.806Z,12.50
2023-05-09T03:45:56.799Z,12.53
2023-05-09T03:46:56.837Z,12.49
2023-05-09T03:47:56.813Z,12.50
2023-05-09T03:48:56.760Z,12.37
2023-05-09T03:49:57.782Z,12.32
2023-05-09T03:50:57.725Z,12.46
2023-05-09T03:51:56.720Z,12.45
2023-05-09T03:52:56.698Z,12.43
2023-05-09T03:53:57.703Z,12.47
2023-05-09T03:54:56.684Z,12.37
2023-05-09T03:55:56.687Z,12.35
2023-05-09T03:56:56.778Z,12.39
2023-05-09T03:57:56.665Z,12.37
2023-05-09T03:58:56.623Z,12.46
2023-05-09T03:59:56.620Z,12.36
2023-05-09T04:00:57.641Z,12.36
2023-05-09T04:01:57.615Z,12.32
2023-05-09T04:02:56.699Z,12.35
2023-05-09T04:03:56.628Z,12.31
2023-05-09T04:04:56.581Z,12.31
2023-05-09T04:05:56.560Z,12.40
2023-05-09T04:06:57.592Z,12.36
2023-05-09T04:07:56.570Z,12.40
2023-05-09T04:08:56.530Z,12.40
2023-05-09T04:09:56.528Z,12.36
2023-05-09T04:10:56.497Z,12.36
2023-05-09T04:11:56.525Z,12.36
2023-05-09T04:12:57.668Z,12.39
2023-05-09T04:13:56.474Z,12.40
2023-05-09T04:14:56.475Z,12.47
2023-05-09T04:15:56.489Z,12.45
2023-05-09T04:16:56.503Z,12.37
2023-05-09T04:17:56.477Z,12.43
2023-05-09T04:18:56.404Z,12.46
2023-05-09T04:19:56.413Z,12.54
2023-05-09T04:20:57.394Z,12.46
2023-05-09T04:21:57.621Z,12.47
2023-05-09T04:22:56.448Z,12.42
2023-05-09T04:23:56.369Z,12.46
2023-05-09T04:24:56.370Z,12.47
2023-05-09T04:25:56.366Z,12.37
2023-05-09T04:26:56.359Z,12.42
2023-05-09T04:27:56.306Z,12.42
2023-05-09T04:28:56.426Z,12.42
2023-05-09T04:29:56.316Z,12.46
2023-05-09T04:30:56.406Z,12.58
2023-05-09T04:31:56.493Z,12.43
2023-05-09T04:32:56.322Z,12.54
2023-05-09T04:33:56.290Z,12.49
2023-05-09T04:34:56.311Z,12.47
2023-05-09T04:35:56.262Z,12.45
2023-05-09T04:36:56.222Z,12.53
2023-05-09T04:37:56.208Z,12.54
2023-05-09T04:38:56.224Z,12.62
2023-05-09T04:39:56.177Z,12.50
2023-05-09T04:40:56.177Z,12.49
2023-05-09T04:41:56.175Z,12.46
2023-05-09T04:42:56.149Z,12.46
2023-05-09T04:43:57.141Z,12.47
2023-05-09T04:44:57.248Z,12.62
2023-05-09T04:45:56.185Z,12.43
2023-05-09T04:46:56.113Z,12.50
2023-05-09T04:47:57.163Z,12.43
2023-05-09T04:48:56.096Z,12.57
2023-05-09T04:49:56.113Z,12.60
2023-05-09T04:50:56.063Z,12.68
2023-05-09T04:51:56.076Z,12.82
2023-05-09T04:52:57.047Z,12.80
2023-05-09T04:53:57.049Z,12.85
2023-05-09T04:54:56.028Z,12.85
2023-05-09T04:55:55.997Z,12.72
2023-05-09T04:57:03.244Z,12.82
2023-05-09T04:57:56.977Z,12.91
2023-05-09T04:58:55.963Z,12.90
2023-05-09T04:59:55.972Z,12.98
2023-05-09T05:00:56.057Z,12.86
2023-05-09T05:01:55.996Z,12.98
2023-05-09T05:02:56.092Z,13.05
2023-05-09T05:03:55.948Z,12.95
2023-05-09T05:05:06.323Z,13.08
2023-05-09T05:05:56.877Z,13.08
2023-05-09T05:06:56.894Z,13.19
2023-05-09T05:07:55.863Z,13.25
2023-05-09T05:08:55.878Z,13.16
2023-05-09T05:09:55.863Z,13.12
2023-05-09T05:10:55.834Z,13.18
2023-05-09T05:12:01.117Z,13.12
2023-05-09T05:12:56.864Z,13.09
2023-05-09T05:13:55.812Z,13.15
2023-05-09T05:14:55.802Z,13.18
2023-05-09T05:15:55.825Z,13.25
2023-05-09T05:16:55.905Z,13.41
2023-05-09T05:17:55.827Z,13.42
2023-05-09T05:18:56.742Z,13.56
2023-05-09T05:19:56.740Z,13.44
2023-05-09T05:20:56.735Z,13.56
2023-05-09T05:21:55.724Z,13.63
2023-05-09T05:22:56.733Z,13.57
2023-05-09T05:23:55.727Z,13.63
2023-05-09T05:24:55.677Z,13.68
2023-05-09T05:25:55.679Z,13.72
2023-05-09T05:26:55.662Z,13.78
2023-05-09T05:27:56.670Z,13.79
2023-05-09T05:28:55.681Z,13.79
2023-05-09T05:29:55.652Z,13.71
2023-05-09T05:30:55.631Z,13.65
2023-05-09T05:31:55.725Z,13.60
2023-05-09T05:32:56.780Z,13.71
2023-05-09T05:33:55.589Z,13.74
2023-05-09T05:34:55.588Z,13.96
2023-05-09T05:35:56.576Z,14.03
2023-05-09T05:36:55.546Z,14.04
2023-05-09T05:37:55.537Z,14.07
2023-05-09T05:38:55.547Z,14.07
2023-05-09T05:39:55.578Z,14.17
2023-05-09T05:40:55.537Z,14.15
2023-05-09T05:41:55.531Z,14.29
2023-05-09T05:42:55.511Z,14.23
2023-05-09T05:43:56.488Z,14.26
2023-05-09T05:44:55.473Z,14.17
2023-05-09T05:45:55.473Z,14.22
2023-05-09T05:46:56.471Z,13.99
2023-05-09T05:47:55.483Z,14.04
2023-05-09T05:48:55.552Z,14.07
2023-05-09T05:49:55.412Z,14.12
2023-05-09T05:50:55.410Z,14.11
2023-05-09T05:51:55.416Z,14.07
2023-05-09T05:52:55.378Z,14.18
2023-05-09T05:53:56.362Z,14.30
2023-05-09T05:54:55.384Z,14.47
2023-05-09T05:55:55.426Z,14.53
2023-05-09T05:56:55.322Z,14.55
2023-05-09T05:57:56.338Z,14.69
2023-05-09T05:58:55.327Z,14.70
2023-05-09T05:59:55.289Z,14.84
2023-05-09T06:00:55.287Z,14.77
2023-05-09T06:01:56.285Z,14.81
2023-05-09T06:02:55.440Z,14.91
2023-05-09T06:03:55.326Z,14.91
2023-05-09T06:04:56.131Z,14.97
2023-05-09T06:05:55.224Z,14.99
2023-05-09T06:06:55.227Z,15.10
2023-05-09T06:07:55.224Z,15.10
2023-05-09T06:08:56.211Z,15.24
2023-05-09T06:09:55.185Z,15.15
2023-05-09T06:10:55.189Z,15.18
2023-05-09T06:11:55.193Z,15.11
2023-05-09T06:12:55.161Z,15.35
2023-05-09T06:13:55.170Z,15.27
2023-05-09T06:14:56.148Z,15.37
2023-05-09T06:15:57.673Z,15.29
2023-05-09T06:16:55.152Z,15.40
2023-05-09T06:17:55.194Z,15.47
2023-05-09T06:18:56.301Z,15.55
2023-05-09T06:19:55.075Z,15.65
2023-05-09T06:20:55.187Z,15.80
2023-05-09T06:21:55.079Z,15.75
2023-05-09T06:22:56.044Z,15.77
2023-05-09T06:24:56.016Z,15.97
2023-05-09T06:25:55.006Z,15.90
2023-05-09T06:26:55.000Z,15.88
2023-05-09T06:27:55.981Z,15.76
2023-05-09T06:28:55.974Z,15.82
2023-05-09T06:29:54.967Z,15.90
2023-05-09T06:30:55.968Z,15.94
2023-05-09T06:31:55.042Z,15.95
2023-05-09T06:32:55.242Z,15.97
2023-05-09T06:33:54.931Z,15.97
2023-05-09T06:34:54.963Z,16.00
2023-05-09T06:35:54.887Z,16.23
2023-05-09T06:36:55.024Z,16.17
2023-05-09T06:37:54.924Z,16.16
2023-05-09T06:38:54.888Z,16.20
2023-05-09T06:39:54.845Z,16.21
2023-05-09T06:40:54.840Z,16.36
2023-05-09T06:41:54.859Z,16.49
2023-05-09T06:42:54.848Z,16.49
2023-05-09T06:43:54.834Z,16.57
2023-05-09T06:44:54.832Z,16.58
2023-05-09T06:45:54.848Z,16.58
2023-05-09T06:46:54.780Z,16.51
2023-05-09T06:47:55.883Z,16.43
2023-05-09T06:48:54.769Z,16.41
2023-05-09T06:49:54.741Z,16.36
2023-05-09T06:50:54.744Z,16.47
2023-05-09T06:51:54.729Z,16.49
2023-05-09T06:52:54.824Z,16.56
2023-05-09T06:53:54.733Z,16.74
2023-05-09T06:54:54.682Z,16.81
2023-05-09T06:55:55.708Z,16.74
2023-05-09T06:56:54.689Z,16.49
2023-05-09T06:57:55.670Z,16.38
2023-05-09T06:58:54.701Z,16.57
2023-05-09T06:59:54.696Z,16.60
2023-05-09T07:00:54.610Z,16.72
2023-05-09T07:01:54.708Z,16.87
2023-05-09T07:02:54.640Z,16.94
2023-05-09T07:03:54.595Z,16.99
2023-05-09T07:04:55.648Z,16.89
2023-05-09T07:05:54.594Z,17.04
2023-05-09T07:06:55.572Z,17.04
2023-05-09T07:07:54.561Z,17.06
2023-05-09T07:08:54.684Z,16.99
2023-05-09T07:10:00.659Z,16.81
2023-05-09T07:10:55.529Z,16.83
2023-05-09T07:11:54.550Z,16.76
2023-05-09T07:12:54.561Z,16.81
2023-05-09T07:13:55.514Z,16.72
2023-05-09T07:14:55.492Z,16.83
2023-05-09T07:15:55.544Z,16.93
2023-05-09T07:17:00.060Z,17.05
2023-05-09T07:17:55.500Z,17.02
2023-05-09T07:18:55.459Z,17.04
2023-05-09T07:19:54.445Z,16.99
2023-05-09T07:20:54.408Z,16.96
2023-05-09T07:21:54.408Z,17.01
2023-05-09T07:22:54.451Z,17.08
2023-05-09T07:23:54.403Z,16.90
2023-05-09T07:24:54.504Z,17.04
2023-05-09T07:25:54.376Z,17.15
2023-05-09T07:26:54.372Z,17.12
2023-05-09T07:27:54.340Z,17.29
2023-05-09T07:28:54.491Z,17.27
2023-05-09T07:29:54.333Z,17.26
2023-05-09T07:30:55.309Z,17.33
2023-05-09T07:31:54.365Z,17.46
2023-05-09T07:32:54.400Z,17.60
2023-05-09T07:33:54.263Z,17.54
2023-05-09T07:34:54.292Z,17.49
2023-05-09T07:35:54.279Z,17.64
2023-05-09T07:36:54.247Z,17.51
2023-05-09T07:37:54.232Z,17.57
2023-05-09T07:38:54.215Z,17.60
2023-05-09T07:39:54.214Z,17.42
2023-05-09T07:40:54.333Z,17.45
2023-05-09T07:41:54.230Z,17.60
2023-05-09T07:42:54.178Z,17.56
2023-05-09T07:43:54.187Z,17.59
2023-05-09T07:44:54.152Z,17.52
2023-05-09T07:45:54.185Z,17.46
2023-05-09T07:46:54.144Z,17.63
2023-05-09T07:47:55.214Z,17.76
2023-05-09T07:48:54.116Z,17.86
2023-05-09T07:49:54.113Z,17.78
2023-05-09T07:50:54.090Z,17.68
2023-05-09T07:51:54.076Z,17.74
2023-05-09T07:52:54.084Z,17.82
2023-05-09T07:53:54.047Z,17.74
2023-05-09T07:54:54.047Z,17.85
2023-05-09T07:55:54.019Z,17.82
2023-05-09T07:56:54.131Z,17.83
2023-05-09T07:57:54.009Z,17.89
2023-05-09T07:58:55.572Z,18.05
2023-05-09T07:59:55.001Z,18.08
2023-05-09T08:00:53.990Z,18.22
2023-05-09T08:01:54.037Z,18.25
2023-05-09T08:02:55.060Z,18.23
2023-05-09T08:03:54.029Z,18.38
2023-05-09T08:04:53.949Z,18.40
2023-05-09T08:05:54.929Z,18.53
2023-05-09T08:06:53.918Z,18.45
2023-05-09T08:07:53.927Z,18.55
2023-05-09T08:08:53.880Z,18.55
2023-05-09T08:09:54.862Z,18.66
2023-05-09T08:10:53.870Z,18.50
2023-05-09T08:11:54.885Z,18.71
2023-05-09T08:12:53.999Z,18.49
2023-05-09T08:13:53.834Z,18.55
2023-05-09T08:14:53.834Z,18.70
2023-05-09T08:15:54.843Z,18.52
2023-05-09T08:16:54.792Z,18.43
2023-05-09T08:17:53.858Z,18.53
2023-05-09T08:18:53.787Z,18.47
2023-05-09T08:19:54.777Z,18.44
2023-05-09T08:20:54.769Z,18.45
2023-05-09T08:21:54.766Z,18.52
2023-05-09T08:22:54.740Z,18.53
2023-05-09T08:23:53.735Z,18.37
2023-05-09T08:24:54.722Z,18.29
2023-05-09T08:25:53.693Z,18.31
2023-05-09T08:26:53.689Z,18.47
2023-05-09T08:27:53.698Z,18.28
2023-05-09T08:28:54.808Z,18.37
2023-05-09T08:29:53.670Z,18.33
2023-05-09T08:30:53.673Z,18.35
2023-05-09T08:31:53.699Z,18.19
2023-05-09T08:32:54.006Z,18.18
2023-05-09T08:33:53.621Z,18.28
2023-05-09T08:34:53.599Z,18.35
2023-05-09T08:35:53.615Z,18.49
2023-05-09T08:36:53.581Z,18.66
2023-05-09T08:37:54.603Z,18.73
2023-05-09T08:38:54.556Z,18.68
2023-05-09T08:39:54.560Z,18.68
2023-05-09T08:40:53.560Z,18.81
2023-05-09T08:41:53.554Z,18.92
2023-05-09T08:42:53.520Z,18.88
2023-05-09T08:43:53.514Z,19.00
2023-05-09T08:44:53.623Z,19.26
2023-05-09T08:45:53.489Z,19.34
2023-05-09T08:46:53.627Z,19.45
2023-05-09T08:47:54.549Z,19.48
2023-05-09T08:48:54.444Z,19.41
2023-05-09T08:49:53.441Z,19.59
2023-05-09T08:50:54.426Z,19.67
2023-05-09T08:51:53.448Z,19.64
2023-05-09T08:52:53.432Z,19.73
2023-05-09T08:53:53.421Z,19.54
2023-05-09T08:54:53.444Z,19.63
2023-05-09T08:55:53.390Z,19.40
2023-05-09T08:56:53.384Z,19.51
2023-05-09T08:57:53.350Z,19.37
2023-05-09T08:58:53.351Z,19.31
2023-05-09T08:59:53.357Z,19.31
2023-05-09T09:00:53.438Z,19.30
2023-05-09T09:01:53.371Z,19.52
2023-05-09T09:02:53.622Z,19.49
2023-05-09T09:03:53.296Z,19.48
2023-05-09T09:04:53.348Z,19.66
2023-05-09T09:05:54.385Z,19.47
2023-05-09T09:06:53.250Z,19.63
2023-05-09T09:07:53.244Z,19.45
2023-05-09T09:08:53.245Z,19.58
2023-05-09T09:09:53.240Z,19.67
2023-05-09T09:10:54.202Z,19.76
2023-05-09T09:11:53.233Z,19.62
2023-05-09T09:12:53.207Z,19.92
2023-05-09T09:13:53.205Z,19.95
2023-05-09T09:14:53.237Z,19.85
2023-05-09T09:15:53.184Z,19.85
2023-05-09T09:16:53.356Z,19.74
2023-05-09T09:17:53.142Z,19.91
2023-05-09T09:18:53.105Z,19.88
2023-05-09T09:19:54.124Z,19.71
2023-05-09T09:20:54.102Z,19.74
2023-05-09T09:21:53.106Z,19.84
2023-05-09T09:22:54.089Z,19.96
2023-05-09T09:23:53.104Z,20.14
2023-05-09T09:24:53.083Z,20.24
2023-05-09T09:25:53.045Z,20.09
2023-05-09T09:26:53.026Z,20.03
2023-05-09T09:27:53.030Z,20.28
2023-05-09T09:28:53.045Z,20.32
2023-05-09T09:29:52.988Z,20.51
2023-05-09T09:30:52.978Z,20.65
2023-05-09T09:31:53.017Z,20.52
2023-05-09T09:32:53.115Z,20.65
2023-05-09T09:33:52.970Z,20.75
2023-05-09T09:34:52.986Z,20.95
2023-05-09T09:35:52.966Z,20.85
2023-05-09T09:36:52.943Z,20.85
2023-05-09T09:37:52.919Z,20.88
2023-05-09T09:38:52.917Z,21.06
2023-05-09T09:39:52.926Z,21.17
2023-05-09T09:40:52.894Z,21.11
2023-05-09T09:41:53.860Z,21.02
2023-05-09T09:42:52.859Z,20.87
2023-05-09T09:43:52.853Z,20.85
2023-05-09T09:44:52.838Z,20.78
2023-05-09T09:45:53.847Z,20.70
2023-05-09T09:46:52.814Z,20.70
2023-05-09T09:47:52.841Z,20.77
2023-05-09T09:48:52.941Z,20.74
2023-05-09T09:49:52.817Z,20.87
2023-05-09T09:50:52.840Z,20.88
2023-05-09T09:51:52.807Z,20.92
2023-05-09T09:52:52.772Z,20.85
2023-05-09T09:53:52.758Z,21.05
2023-05-09T09:54:52.763Z,21.06
2023-05-09T09:55:52.722Z,20.96
2023-05-09T09:56:52.727Z,21.02
2023-05-09T09:57:52.730Z,21.06
2023-05-09T09:58:52.688Z,21.09
2023-05-09T09:59:52.671Z,21.14
2023-05-09T10:00:52.771Z,21.18
2023-05-09T10:01:52.650Z,21.15
2023-05-09T10:02:52.787Z,21.09
2023-05-09T10:03:53.654Z,21.17
2023-05-09T10:04:53.768Z,21.14
2023-05-09T10:05:52.621Z,21.14
2023-05-09T10:06:52.658Z,21.11
2023-05-09T10:07:52.604Z,21.09
2023-05-09T10:08:53.566Z,21.15
2023-05-09T10:09:52.551Z,21.37
2023-05-09T10:10:52.558Z,21.58
2023-05-09T10:11:52.553Z,21.55
2023-05-09T10:12:52.578Z,21.73
2023-05-09T10:13:53.524Z,21.70
2023-05-09T10:14:52.533Z,21.66
2023-05-09T10:15:53.981Z,21.57
2023-05-09T10:16:52.553Z,21.61
2023-05-09T10:17:52.517Z,21.64
2023-05-09T10:18:52.574Z,21.61
2023-05-09T10:19:52.469Z,21.48
2023-05-09T10:20:52.550Z,21.57
2023-05-09T10:21:52.424Z,21.57
2023-05-09T10:22:52.418Z,21.48
2023-05-09T10:23:52.436Z,21.54
2023-05-09T10:24:52.421Z,21.64
2023-05-09T10:25:52.408Z,21.79
2023-05-09T10:26:52.410Z,21.75
2023-05-09T10:27:52.380Z,21.76
2023-05-09T10:28:52.373Z,21.88
2023-05-09T10:29:52.365Z,21.98
2023-05-09T10:30:52.342Z,22.02
2023-05-09T10:31:53.504Z,21.82
2023-05-09T10:32:52.348Z,21.98
2023-05-09T10:33:52.297Z,21.98
2023-05-09T10:34:53.283Z,21.89
2023-05-09T10:35:53.333Z,21.83
2023-05-09T10:36:52.432Z,21.70
2023-05-09T10:37:52.263Z,21.80
2023-05-09T10:38:52.234Z,21.76
2023-05-09T10:39:53.234Z,21.73
2023-05-09T10:40:52.220Z,21.70
2023-05-09T10:41:52.211Z,21.70
2023-05-09T10:42:52.293Z,21.77
2023-05-09T10:43:53.186Z,21.95
2023-05-09T10:44:52.172Z,22.06
2023-05-09T10:45:52.222Z,21.69
2023-05-09T10:46:53.181Z,21.79
2023-05-09T10:47:52.210Z,21.69
2023-05-09T10:48:52.150Z,21.70
2023-05-09T10:49:52.117Z,21.77
2023-05-09T10:50:52.104Z,21.77
2023-05-09T10:51:52.093Z,21.75
2023-05-09T10:52:52.111Z,21.76
2023-05-09T10:53:52.111Z,21.77
2023-05-09T10:54:52.085Z,21.93
2023-05-09T10:55:52.082Z,21.85
2023-05-09T10:56:52.084Z,21.98
2023-05-09T10:57:52.039Z,21.88
2023-05-09T10:58:52.013Z,21.85
2023-05-09T10:59:52.007Z,22.23
2023-05-09T11:00:52.012Z,22.08
2023-05-09T11:01:51.995Z,22.11
2023-05-09T11:02:52.043Z,21.96
2023-05-09T11:03:52.078Z,21.93
2023-05-09T11:04:52.019Z,21.92
2023-05-09T11:05:52.941Z,21.89
2023-05-09T11:06:52.341Z,22.00
2023-05-09T11:07:51.926Z,22.14
2023-05-09T11:08:52.023Z,22.17
2023-05-09T11:09:51.926Z,22.26
2023-05-09T11:10:52.909Z,22.36
2023-05-09T11:11:51.889Z,22.33
2023-05-09T11:12:53.341Z,22.28
2023-05-09T11:13:52.865Z,22.26
2023-05-09T11:14:51.839Z,22.39
2023-05-09T11:15:51.837Z,22.41
2023-05-09T11:16:51.850Z,22.23
2023-05-09T11:17:51.902Z,22.17
2023-05-09T11:18:51.793Z,22.10
2023-05-09T11:19:51.796Z,22.10
2023-05-09T11:20:51.791Z,22.15
2023-05-09T11:21:51.770Z,22.32
2023-05-09T11:22:51.773Z,22.23
2023-05-09T11:23:54.483Z,22.14
2023-05-09T11:24:51.862Z,22.14
2023-05-09T11:25:51.774Z,22.30
2023-05-09T11:26:52.710Z,22.41
2023-05-09T11:27:51.721Z,22.54
2023-05-09T11:28:52.744Z,22.70
2023-05-09T11:29:51.681Z,22.81
2023-05-09T11:30:53.886Z,22.87
2023-05-09T11:31:51.688Z,22.76
2023-05-09T11:32:51.745Z,22.78
2023-05-09T11:33:51.649Z,22.80
2023-05-09T11:34:51.632Z,22.68
2023-05-09T11:35:52.628Z,22.69
2023-05-09T11:36:51.636Z,22.72
2023-05-09T11:37:51.581Z,22.65
2023-05-09T11:38:52.589Z,22.48
2023-05-09T11:39:51.558Z,22.59
2023-05-09T11:40:52.700Z,22.75
2023-05-09T11:41:51.602Z,22.76
2023-05-09T11:42:51.544Z,22.83
2023-05-09T11:43:51.528Z,22.90
2023-05-09T11:44:51.539Z,22.93
2023-05-09T11:45:51.574Z,22.78
2023-05-09T11:46:52.533Z,22.87
2023-05-09T11:47:51.517Z,22.96
2023-05-09T11:48:51.484Z,22.78
2023-05-09T11:49:51.458Z,22.94
2023-05-09T11:50:51.456Z,22.98
2023-05-09T11:51:51.489Z,23.02
2023-05-09T11:52:51.487Z,23.12
2023-05-09T11:53:51.422Z,22.98
2023-05-09T11:54:51.391Z,22.93
2023-05-09T11:55:52.402Z,22.87
2023-05-09T11:56:51.538Z,22.91
2023-05-09T11:57:51.396Z,22.81
2023-05-09T11:58:51.396Z,22.68
2023-05-09T11:59:51.358Z,22.70
2023-05-09T12:00:51.333Z,22.80
2023-05-09T12:01:52.369Z,22.69
2023-05-09T12:02:51.487Z,22.70
2023-05-09T12:03:51.470Z,22.57
2023-05-09T12:04:52.300Z,22.50
2023-05-09T12:05:51.278Z,22.48
2023-05-09T12:06:51.267Z,22.68
2023-05-09T12:07:51.292Z,22.90
2023-05-09T12:08:51.248Z,22.93
2023-05-09T12:09:51.252Z,22.94
2023-05-09T12:10:51.217Z,22.99
2023-05-09T12:11:52.231Z,23.13
2023-05-09T12:12:51.359Z,23.27
2023-05-09T12:13:51.196Z,23.36
2023-05-09T12:14:51.216Z,23.36
2023-05-09T12:15:52.274Z,23.34
2023-05-09T12:16:51.164Z,23.13
2023-05-09T12:17:52.318Z,22.96
2023-05-09T12:18:51.162Z,23.06
2023-05-09T12:19:51.158Z,23.03
2023-05-09T12:20:51.161Z,22.93
2023-05-09T12:21:51.124Z,22.96
2023-05-09T12:22:51.083Z,23.08
2023-05-09T12:23:53.197Z,23.23
2023-05-09T12:24:51.080Z,23.13
2023-05-09T12:25:51.358Z,23.09
2023-05-09T12:26:52.056Z,23.12
2023-05-09T12:27:51.066Z,23.23
2023-05-09T12:28:52.281Z,23.10
2023-05-09T12:29:52.468Z,23.37
2023-05-09T12:30:52.000Z,23.43
2023-05-09T12:31:51.084Z,23.34
2023-05-09T12:32:52.020Z,23.27
2023-05-09T12:33:51.985Z,23.24
2023-05-09T12:34:50.965Z,23.09
2023-05-09T12:35:54.470Z,22.90
2023-05-09T12:36:50.965Z,22.87
2023-05-09T12:37:50.939Z,22.99
2023-05-09T12:38:50.925Z,22.99
2023-05-09T12:39:50.920Z,23.12
2023-05-09T12:40:50.903Z,23.09
2023-05-09T12:42:01.165Z,23.08
2023-05-09T12:42:51.899Z,23.10
2023-05-09T12:43:50.870Z,23.12
2023-05-09T12:44:51.962Z,23.31
2023-05-09T12:45:50.866Z,23.27
2023-05-09T12:46:50.927Z,23.43
2023-05-09T12:47:51.849Z,23.48
2023-05-09T12:48:50.850Z,23.46
2023-05-09T12:49:50.795Z,23.27
2023-05-09T12:50:50.805Z,23.27
2023-05-09T12:51:50.811Z,23.37
2023-05-09T12:53:02.723Z,23.41
2023-05-09T12:53:51.765Z,23.44